Tipperary, Ireland
Current Conditions -  °F | °C
As of 1:00 AM on Wednesday 28 Jan 2015 (Local Time) from EINN Reporting Station
Drizzle Drizzle  
Wind Chill:   Ceiling: 600
Heat Index:   Visibility: 1.8mi
Dew Point:   Wind: 16mph
Humidity: 93%   Direction: 210°SSW
Pressure: 29.85"   Gusts: NA
Location:  52.49°N, 8.17°W
Report Text: EINN 280100Z 21014KT 3000 -DZ SCT003 BKN006 09/08 Q1011 TEMPO BKN005
Loading
Personal Weather Stations






























Interactive Weather Map New forecast layout! Learn more

10-Day Weather Forecast

Advertisements
Track Severe Weather on mobile